createdAt,value
2023-01-30T00:02:42.703Z,83.25
2023-01-30T00:07:44.893Z,83.29
2023-01-30T00:12:47.998Z,83.41
2023-01-30T00:17:49.780Z,83.34
2023-01-30T00:23:00.529Z,83.29
2023-01-30T00:28:05.036Z,83.21
2023-01-30T00:33:07.265Z,83.34
2023-01-30T00:38:09.438Z,83.28
2023-01-30T00:43:15.064Z,83.40
2023-01-30T00:48:16.991Z,83.80
2023-01-30T00:53:19.064Z,83.67
2023-01-30T00:58:26.244Z,83.63
2023-01-30T01:03:28.468Z,83.53
2023-01-30T01:08:30.355Z,83.78
2023-01-30T01:13:34.040Z,83.91
2023-01-30T01:18:35.938Z,83.96
2023-01-30T01:23:38.276Z,83.87
2023-01-30T01:28:41.570Z,83.20
2023-01-30T01:33:44.130Z,83.19
2023-01-30T01:38:46.544Z,83.29
2023-01-30T01:44:02.796Z,82.80
2023-01-30T01:49:13.193Z,82.81
2023-01-30T01:54:18.775Z,82.62
2023-01-30T01:59:28.683Z,83.07
2023-01-30T02:04:32.957Z,82.97
2023-01-30T02:09:35.411Z,83.22
2023-01-30T02:14:40.070Z,83.27
2023-01-30T02:19:49.422Z,83.95
2023-01-30T02:25:16.419Z,83.99
2023-01-30T02:30:55.223Z,84.46
2023-01-30T02:36:05.911Z,84.47
2023-01-30T02:41:19.809Z,84.91
2023-01-30T02:46:32.166Z,86.61
2023-01-30T02:51:37.078Z,88.25
2023-01-30T02:56:47.308Z,88.43
2023-01-30T03:02:26.627Z,88.82
2023-01-30T03:07:43.251Z,89.10
2023-01-30T03:12:52.996Z,88.85
2023-01-30T03:17:57.612Z,88.40
2023-01-30T03:22:59.666Z,87.68
2023-01-30T03:28:05.110Z,87.45
2023-01-30T03:33:08.541Z,87.44
2023-01-30T03:38:11.183Z,87.77
2023-01-30T03:43:13.233Z,87.54
2023-01-30T03:48:16.666Z,87.62
2023-01-30T03:53:18.606Z,88.44
2023-01-30T03:58:20.742Z,88.81
2023-01-30T04:03:23.928Z,88.16
2023-01-30T04:08:26.660Z,88.41
2023-01-30T04:13:28.678Z,87.68
2023-01-30T04:18:32.096Z,87.65
2023-01-30T04:23:34.086Z,86.90
2023-01-30T04:28:37.247Z,86.90
2023-01-30T04:33:41.201Z,87.08
2023-01-30T04:38:43.527Z,87.14
2023-01-30T04:43:45.288Z,87.06
2023-01-30T04:48:48.372Z,87.45
2023-01-30T04:53:50.436Z,87.48
2023-01-30T04:58:52.531Z,88.52
2023-01-30T05:03:56.557Z,89.57
2023-01-30T05:08:59.310Z,90.86
2023-01-30T05:14:01.478Z,92.35
2023-01-30T05:19:05.022Z,95.21
2023-01-30T05:24:07.464Z,96.90
2023-01-30T05:29:10.946Z,98.82
2023-01-30T05:34:14.415Z,99.65
2023-01-30T05:39:16.416Z,100.00
2023-01-30T05:44:18.744Z,100.00
2023-01-30T05:49:22.291Z,100.00
2023-01-30T05:54:24.425Z,100.00
2023-01-30T05:59:26.513Z,100.00
2023-01-30T06:04:29.932Z,100.00
2023-01-30T06:09:31.854Z,100.00
2023-01-30T06:14:34.141Z,100.00
2023-01-30T06:19:37.514Z,100.00
2023-01-30T06:24:39.820Z,100.00
2023-01-30T06:29:42.110Z,100.00
2023-01-30T06:34:45.416Z,100.00
2023-01-30T06:39:47.642Z,100.00
2023-01-30T06:44:49.720Z,100.00
2023-01-30T06:49:53.104Z,100.00
2023-01-30T06:54:54.853Z,100.00
2023-01-30T06:59:56.636Z,100.00
2023-01-30T07:04:59.733Z,100.00
2023-01-30T07:10:08.412Z,100.00
2023-01-30T07:15:10.846Z,100.00
2023-01-30T07:20:14.275Z,100.00
2023-01-30T07:25:16.576Z,100.00
2023-01-30T07:30:19.074Z,100.00
2023-01-30T07:35:23.648Z,100.00
2023-01-30T07:40:26.235Z,100.00
2023-01-30T07:45:31.345Z,100.00
2023-01-30T07:50:34.904Z,100.00
2023-01-30T07:55:36.965Z,100.00
2023-01-30T08:00:39.103Z,100.00
2023-01-30T08:05:42.633Z,100.00
2023-01-30T08:10:44.481Z,100.00
2023-01-30T08:15:46.622Z,100.00
2023-01-30T08:20:49.657Z,100.00
2023-01-30T08:25:54.687Z,100.00
2023-01-30T08:30:57.836Z,100.00
2023-01-30T08:36:01.276Z,100.00
2023-01-30T08:41:04.949Z,100.00
2023-01-30T08:46:06.718Z,99.93
2023-01-30T08:51:10.222Z,98.99
2023-01-30T08:56:12.331Z,98.40
2023-01-30T09:01:14.076Z,99.15
2023-01-30T09:06:17.895Z,97.89
2023-01-30T09:11:20.227Z,97.50
2023-01-30T09:16:22.332Z,96.10
2023-01-30T09:21:26.027Z,96.01
2023-01-30T09:26:28.376Z,94.19
2023-01-30T09:31:30.931Z,92.81
2023-01-30T09:36:34.407Z,91.40
2023-01-30T09:41:54.330Z,88.95
2023-01-30T09:47:09.151Z,85.73
2023-01-30T09:52:27.516Z,85.17
2023-01-30T09:57:30.063Z,83.72
2023-01-30T10:02:47.734Z,83.03
2023-01-30T10:08:03.900Z,83.08
2023-01-30T10:13:18.521Z,84.01
2023-01-30T10:18:44.983Z,80.58
2023-01-30T10:24:03.358Z,80.84
2023-01-30T10:29:11.964Z,75.42
2023-01-30T10:34:22.130Z,68.41
2023-01-30T10:39:35.348Z,62.92
2023-01-30T10:44:41.043Z,59.16
2023-01-30T10:49:46.520Z,67.10
2023-01-30T10:55:00.584Z,75.27
2023-01-30T11:00:11.117Z,77.79
2023-01-30T11:05:16.320Z,78.67
2023-01-30T11:10:23.316Z,79.44
2023-01-30T11:15:39.615Z,79.69
2023-01-30T11:20:44.376Z,80.10
2023-01-30T11:26:09.187Z,71.00
2023-01-30T11:31:28.271Z,77.15
2023-01-30T11:36:38.923Z,78.25
2023-01-30T11:41:44.099Z,77.28
2023-01-30T11:46:46.897Z,75.25
2023-01-30T11:51:54.090Z,73.21
2023-01-30T11:57:01.783Z,73.87
2023-01-30T12:02:11.150Z,72.88
2023-01-30T12:07:20.755Z,73.07
2023-01-30T12:12:32.847Z,73.35
2023-01-30T12:17:42.707Z,72.36
2023-01-30T12:22:51.766Z,70.37
2023-01-30T12:28:01.901Z,67.41
2023-01-30T12:33:06.604Z,68.74
2023-01-30T12:38:18.780Z,67.33
2023-01-30T12:43:34.884Z,67.51
2023-01-30T12:49:10.111Z,68.10
2023-01-30T12:54:24.877Z,68.91
2023-01-30T12:59:37.034Z,69.81
2023-01-30T13:04:56.696Z,70.07
2023-01-30T13:10:14.736Z,71.74
2023-01-30T13:15:26.243Z,73.83
2023-01-30T13:20:44.491Z,74.46
2023-01-30T13:25:55.993Z,74.14
2023-01-30T13:31:01.277Z,73.56
2023-01-30T13:36:11.952Z,72.22
2023-01-30T13:41:17.173Z,71.53
2023-01-30T13:46:26.519Z,72.42
2023-01-30T13:51:43.142Z,71.61
2023-01-30T13:56:50.424Z,73.80
2023-01-30T14:02:19.505Z,76.67
2023-01-30T14:07:29.998Z,77.58
2023-01-30T14:12:36.291Z,75.96
2023-01-30T14:17:39.885Z,77.79
2023-01-30T14:22:51.424Z,82.83
2023-01-30T14:27:55.267Z,86.52
2023-01-30T14:32:59.682Z,88.84
2023-01-30T14:38:13.246Z,90.24
2023-01-30T14:43:37.189Z,90.30
2023-01-30T14:48:44.760Z,90.89
2023-01-30T14:53:53.683Z,90.67
2023-01-30T14:59:01.903Z,90.61
2023-01-30T15:04:05.554Z,90.74
2023-01-30T15:09:08.040Z,89.68
2023-01-30T15:14:19.375Z,89.39
2023-01-30T15:19:41.218Z,89.16
2023-01-30T15:25:22.258Z,88.51
2023-01-30T15:30:38.079Z,88.16
2023-01-30T15:35:42.868Z,87.18
2023-01-30T15:40:44.816Z,87.59
2023-01-30T15:46:03.237Z,87.66
2023-01-30T15:51:12.557Z,87.59
2023-01-30T15:56:19.557Z,86.91
2023-01-30T16:01:23.393Z,87.38
2023-01-30T16:06:30.845Z,86.25
2023-01-30T16:11:39.193Z,86.86
2023-01-30T16:16:46.653Z,87.12
2023-01-30T16:21:50.809Z,90.92
2023-01-30T16:26:55.872Z,92.00
2023-01-30T16:31:58.350Z,93.03
2023-01-30T16:37:06.374Z,93.67
2023-01-30T16:42:27.080Z,94.02
2023-01-30T16:47:29.667Z,93.88
2023-01-30T16:52:37.142Z,93.81
2023-01-30T16:57:42.875Z,94.40
2023-01-30T17:02:51.057Z,95.50
2023-01-30T17:07:56.116Z,96.08
2023-01-30T17:12:59.476Z,96.14
2023-01-30T17:18:02.013Z,96.93
2023-01-30T17:23:09.336Z,97.53
2023-01-30T17:28:18.550Z,96.88
2023-01-30T17:33:21.372Z,97.67
2023-01-30T17:38:24.380Z,97.35
2023-01-30T17:43:26.817Z,97.29
2023-01-30T17:48:29.084Z,96.82
2023-01-30T17:53:32.501Z,96.14
2023-01-30T17:58:34.275Z,94.83
2023-01-30T18:03:36.023Z,93.98
2023-01-30T18:08:39.446Z,92.83
2023-01-30T18:13:42.206Z,91.79
2023-01-30T18:18:43.938Z,91.49
2023-01-30T18:23:47.488Z,90.08
2023-01-30T18:28:49.610Z,89.09
2023-01-30T18:33:52.709Z,87.33
2023-01-30T18:38:55.874Z,87.18
2023-01-30T18:43:58.727Z,84.24
2023-01-30T18:49:00.890Z,82.03
2023-01-30T18:54:04.457Z,81.55
2023-01-30T18:59:07.635Z,80.40
2023-01-30T19:04:11.215Z,78.36
2023-01-30T19:09:15.657Z,77.39
2023-01-30T19:14:17.695Z,77.82
2023-01-30T19:19:19.446Z,77.61
2023-01-30T19:24:22.481Z,76.52
2023-01-30T19:29:24.139Z,76.83
2023-01-30T19:34:25.895Z,76.20
2023-01-30T19:39:29.028Z,76.37
2023-01-30T19:44:30.823Z,76.96
2023-01-30T19:49:35.719Z,76.03
2023-01-30T19:54:39.155Z,76.21
2023-01-30T19:59:41.347Z,75.76
2023-01-30T20:04:43.077Z,75.44
2023-01-30T20:09:46.423Z,74.63
2023-01-30T20:14:48.771Z,74.80
2023-01-30T20:19:51.324Z,73.75
2023-01-30T20:24:54.439Z,73.00
2023-01-30T20:29:56.625Z,74.14
2023-01-30T20:34:58.380Z,74.77
2023-01-30T20:40:02.296Z,75.23
2023-01-30T20:45:05.765Z,74.64
2023-01-30T20:50:09.167Z,75.34
2023-01-30T20:55:12.871Z,75.68
2023-01-30T21:00:15.133Z,75.09
2023-01-30T21:05:17.798Z,75.46
2023-01-30T21:10:21.398Z,77.26
2023-01-30T21:15:23.196Z,77.83
2023-01-30T21:20:24.915Z,77.62
2023-01-30T21:25:28.074Z,77.69
2023-01-30T21:30:29.843Z,77.51
2023-01-30T21:35:32.383Z,78.16
2023-01-30T21:40:35.513Z,79.13
2023-01-30T21:45:37.795Z,79.92
2023-01-30T21:50:40.321Z,80.21
2023-01-30T21:55:43.447Z,80.59
2023-01-30T22:00:45.732Z,80.26
2023-01-30T22:05:47.457Z,81.13
2023-01-30T22:10:50.976Z,80.89
2023-01-30T22:15:52.687Z,81.01
2023-01-30T22:20:54.430Z,80.75
2023-01-30T22:25:57.760Z,81.08
2023-01-30T22:31:05.338Z,81.24
2023-01-30T22:36:08.074Z,81.04
2023-01-30T22:41:14.430Z,81.19
2023-01-30T22:46:18.454Z,80.62
2023-01-30T22:51:22.681Z,79.98
2023-01-30T22:56:28.547Z,79.22
2023-01-30T23:01:32.460Z,78.46
2023-01-30T23:06:34.905Z,77.38
2023-01-30T23:11:40.931Z,77.12
2023-01-30T23:16:45.062Z,76.18
2023-01-30T23:21:47.503Z,76.50
2023-01-30T23:26:52.055Z,75.83
2023-01-30T23:31:54.170Z,75.22
2023-01-30T23:36:56.451Z,75.97
2023-01-30T23:42:00.039Z,75.23
2023-01-30T23:47:02.393Z,75.67
2023-01-30T23:52:04.847Z,76.58
2023-01-30T23:57:08.351Z,78.14
